Latest Coastal Weather Observations for Lake Macquarie - Cooranbong

IDN60701

Issued at 3:15 pm EDT Saturday 25 October 2014 (issued every 10 minutes, with the page automatically refreshed every 10 minutes)

About coastal observations | Map of coastal stations | Coastal observations for NSW | Marine services | Other Formats
Station Details ID: 061412 Name: LAKE MACQUARIE AWS Lat: -33.09 Lon: 151.46 Height: 6.0 m
Data from the previous 72 hours. | See also: Recent months at Lake Macquarie - Cooranbong
Date/Time
EDT
Temp

°C
Wind Pressure Rain
since 9am
mm
Weather Cloud Vis
km
Sea
Height
m
Swell
Dir
 
Speed
knots
Gust
knots
hPa Trend Height
m
Period
s
Dir
25/03:00pm 26.4 ESE 6 10 1013.7 - 0.0 - - - - - - -
25/02:30pm 29.3 S 4 8 1013.5 - 0.0 - - - - - - -
25/02:00pm 29.9 SSE 4 8 1013.7 - 0.0 - - - - - - -
25/01:30pm 29.4 E 6 11 1013.7 - 0.0 - - - - - - -
25/01:00pm 30.0 E 7 11 1013.9 - 0.0 - - - - - - -
25/12:30pm 31.1 SE 4 7 1014.1 - 0.0 - - - - - - -
25/12:00pm 31.0 SW 3 7 1014.5 - 0.0 - - - - - - -
25/11:30am 30.4 SSE 3 8 1014.9 - 0.0 - - - - - - -
25/11:00am 29.7 SW 4 8 1015.1 - 0.0 - - - - - - -
25/10:30am 29.4 SSW 4 7 1015.3 - 0.0 - - - - - - -
25/10:00am 27.9 SW 1 2 1015.4 - 0.0 - - - - - - -
25/09:30am 25.4 SE 1 2 1015.3 - 0.0 - - - - - - -
25/08:30am 21.5 CALM 0 0 1015.3 - 0.6 - - - - - - -
25/08:00am 19.5 CALM 0 0 1015.2 - 0.6 - - - - - - -
25/07:30am 17.7 CALM 0 0 1014.7 - 0.6 - - - - - - -
25/07:00am 15.8 CALM 0 0 1014.3 - 0.6 - - - - - - -
25/06:30am 15.1 CALM 0 0 1013.6 - 0.6 - - - - - - -
25/06:00am 15.1 CALM 0 0 1013.2 - 0.4 - - - - - - -
25/05:30am 15.5 CALM 0 0 1012.9 - 0.4 - - - - - - -
25/05:00am 15.9 CALM 0 0 1012.5 - 0.4 - - - - - - -
25/04:30am 16.6 CALM 0 0 1012.2 - 0.4 - - - - - - -
25/04:00am 16.8 CALM 0 0 1012.0 - 0.4 - - - - - - -
25/03:30am 17.4 SSE 0 0 1011.8 - 0.4 - - - - - - -
25/03:00am 17.9 CALM 0 0 1011.6 - 0.4 - - - - - - -
25/02:30am 18.5 CALM 0 0 1011.7 - 0.4 - - - - - - -
25/02:00am 18.1 ENE 1 4 1011.6 - 0.4 - - - - - - -
25/01:30am 18.2 NNE 2 4 1011.7 - 0.4 - - - - - - -
25/01:00am 18.2 NE 2 3 1011.9 - 0.4 - - - - - - -
25/12:30am 19.1 NE 1 3 1011.9 - 0.4 - - - - - - -
25/12:00am 20.4 ESE 0 0 1012.3 - 0.4 Recent precip. - - - - - -
 
Date/Time
EDT
Temp

°C
Wind Pressure Rain
since 9am
mm
Weather Cloud Vis
km
Sea
Height
m
Swell
Dir
 
Speed
knots
Gust
knots
hPa Trend Height
m
Period
s
Dir
24/11:30pm 20.4 S 2 3 1012.6 - 0.4 - - - - - - -
24/11:00pm 21.4 W 2 4 1013.4 - 0.2 - - - - - - -
24/10:30pm 21.6 NNE 3 6 1014.8 - 0.0 - - - - - - -
24/10:00pm 21.5 E 2 5 1014.1 - 0.0 - - - - - - -
24/09:30pm 22.2 E 1 2 1013.1 - 0.0 - - - - - - -
24/09:00pm 21.9 E 3 4 1013.2 - 0.0 - - - - - - -
24/08:30pm 22.0 E 3 4 1013.2 - 0.0 - - - - - - -
24/08:00pm 22.2 CALM 0 0 1013.2 - 0.0 - - - - - - -
24/07:30pm 22.7 SSW 2 2 1013.2 - 0.0 - - - - - - -
24/07:00pm 23.7 S 1 2 1013.2 - 0.0 - - - - - - -
24/06:30pm 23.8 SE 2 4 1013.1 - 0.0 - - - - - - -
24/06:00pm 24.5 ESE 5 7 1013.2 - 0.0 - - - - - - -
24/05:30pm 25.1 E 5 9 1013.3 - 0.0 - - - - - - -
24/05:00pm 26.7 E 6 10 1013.6 - 0.0 - - - - - - -
24/04:30pm 28.1 ENE 4 8 1013.9 - 0.0 - - - - - - -
24/04:00pm 27.3 E 5 8 1014.3 - 0.0 - - - - - - -
24/03:30pm 27.6 ENE 5 10 1014.8 - 0.0 - - - - - - -
24/03:00pm 28.1 NNE 5 8 1015.3 - 0.0 - - - - - - -
24/02:30pm 27.7 NNE 5 10 1016.0 - 0.0 - - - - - - -
24/02:00pm 25.5 ESE 6 9 1016.7 - 0.0 - - - - - - -
24/01:30pm 25.5 E 5 10 1017.3 - 0.0 - - - - - - -
24/01:00pm 25.0 E 5 9 1017.9 - 0.0 - - - - - - -
24/12:30pm 24.4 E 5 11 1018.5 - 0.0 - - - - - - -
24/12:00pm 23.4 E 4 6 1019.1 - 0.0 - - - - - - -
24/11:30am 23.9 NE 2 4 1019.4 - 0.0 - - - - - - -
24/11:00am 25.4 ESE 2 3 1020.1 - 0.0 - - - - - - -
24/10:30am 24.7 NE 2 5 1019.6 - 0.0 - - - - - - -
24/10:00am 23.3 NNE 4 6 1020.0 - 0.0 - - - - - - -
24/09:30am 21.4 NNW 3 4 1020.7 - 0.0 - - - - - - -
24/09:00am 21.0 NW 1 4 1020.5 - 0.0 - - - - - - -
24/08:30am 19.5 WSW 1 3 1020.6 - 0.0 - - - - - - -
24/08:00am 18.1 WSW 3 5 1020.9 - 0.0 - - - - - - -
24/07:30am 17.6 CALM 0 0 1020.1 - 0.0 - - - - - - -
24/07:00am 17.0 CALM 0 0 1020.0 - 0.0 - - - - - - -
24/06:30am 17.3 CALM 0 2 1020.1 - 0.0 - - - - - - -
24/06:00am 17.8 W 2 6 1020.2 - 0.0 - - - - - - -
24/05:30am 17.7 W 3 8 1020.5 - 0.0 - - - - - - -
24/05:00am 15.1 WSW 1 4 1020.5 - 0.0 - - - - - - -
24/04:30am 14.5 CALM 0 0 1019.9 - 0.0 - - - - - - -
24/04:00am 14.5 CALM 0 2 1019.2 - 0.0 - - - - - - -
24/03:30am 14.9 CALM 0 1 1019.1 - 0.0 - - - - - - -
24/03:00am 14.6 CALM 0 0 1019.3 - 0.0 - - - - - - -
24/02:30am 14.3 CALM 0 0 1019.7 - 0.0 - - - - - - -
24/02:00am 14.9 W 1 3 1019.7 - 0.0 - - - - - - -
24/01:30am 15.1 CALM 0 0 1019.8 - 0.0 - - - - - - -
24/01:00am 15.4 CALM 0 0 1020.0 - 0.0 - - - - - - -
24/12:30am 15.1 CALM 0 0 1019.8 - 0.0 - - - - - - -
24/12:00am 15.7 CALM 0 0 1020.0 - 0.0 - - - - - - -
 
Date/Time
EDT
Temp

°C
Wind Pressure Rain
since 9am
mm
Weather Cloud Vis
km
Sea
Height
m
Swell
Dir
 
Speed
knots
Gust
knots
hPa Trend Height
m
Period
s
Dir
23/11:30pm 16.2 CALM 0 0 1020.5 - 0.0 - - - - - - -
23/11:00pm 15.9 CALM 0 0 1020.2 - 0.0 - - - - - - -
23/10:30pm 16.4 CALM 0 0 1019.9 - 0.0 - - - - - - -
23/10:00pm 16.7 CALM 0 0 1019.8 - 0.0 - - - - - - -
23/09:30pm 16.9 CALM 0 0 1019.6 - 0.0 - - - - - - -
23/09:00pm 18.0 CALM 0 0 1019.4 - 0.0 - - - - - - -
23/08:30pm 18.4 CALM 0 0 1019.0 - 0.0 - - - - - - -
23/08:00pm 19.3 CALM 0 0 1018.8 - 0.0 - - - - - - -
23/07:30pm 19.7 CALM 0 0 1018.3 - 0.0 - - - - - - -
23/07:00pm 20.6 CALM 0 0 1017.8 - 0.0 - - - - - - -
23/06:30pm 22.0 SE 1 2 1017.4 - 0.0 - - - - - - -
23/06:00pm 22.4 ESE 1 3 1017.0 - 0.0 - - - - - - -
23/05:30pm 22.9 ENE 2 5 1016.6 - 0.0 - - - - - - -
23/05:00pm 24.3 E 3 7 1016.1 - 0.0 - - - - - - -
23/04:30pm 25.3 E 5 8 1015.9 - 0.0 - - - - - - -
23/04:00pm 26.7 ENE 5 8 1015.4 - 0.0 - - - - - - -
23/03:30pm 28.6 E 5 8 1015.4 - 0.0 - - - - - - -
23/03:00pm 28.7 E 6 9 1015.3 - 0.0 - - - - - - -
23/02:30pm 29.6 E 6 10 1015.4 - 0.0 - - - - - - -
23/02:00pm 30.1 E 5 8 1015.8 - 0.0 - - - - - - -
23/01:30pm 30.1 SSW 2 6 1016.1 - 0.0 - - - - - - -
23/01:00pm 29.9 SW 2 6 1016.5 - 0.0 - - - - - - -
23/12:30pm 28.9 N 2 3 1016.7 - 0.0 - - - - - - -
23/12:00pm 27.7 WNW 2 4 1017.1 - 0.0 - - - - - - -
23/11:30am 26.7 CALM 0 0 1017.5 - 0.0 - - - - - - -
23/11:00am 25.6 CALM 0 0 1017.8 - 0.0 - - - - - - -
23/10:30am 24.4 NNE 2 4 1018.0 - 0.0 - - - - - - -
23/10:00am 22.6 CALM 0 0 1018.2 - 0.0 - - - - - - -
23/09:30am 20.6 N 2 3 1018.5 - 0.0 - - - - - - -
23/09:00am 18.8 E 2 4 1018.6 - 0.0 - - - - - - -
23/08:30am 16.5 CALM 0 0 1018.7 - 0.0 - - - - - - -
23/08:00am 13.7 CALM 0 0 1018.7 - 0.0 - - - - - - -
23/07:30am 11.4 CALM 0 0 1018.5 - 0.0 - - - - - - -
23/07:00am 10.0 N 1 2 1018.3 - 0.0 - - - - - - -
23/06:30am 9.4 CALM 0 0 1018.5 - 0.0 - - - - - - -
23/06:00am 9.5 CALM 0 2 1018.4 - 0.0 - - - - - - -
23/05:30am 9.5 CALM 0 0 1018.3 - 0.0 - - - - - - -
23/05:00am 9.8 CALM 0 0 1018.1 - 0.0 - - - - - - -
23/04:30am 10.1 CALM 0 0 1018.1 - 0.0 - - - - - - -
23/04:00am 10.2 CALM 0 0 1018.0 - 0.0 - - - - - - -
23/03:30am 10.5 CALM 0 0 1018.3 - 0.0 - - - - - - -
23/03:00am 10.5 CALM 0 0 1018.6 - 0.0 - - - - - - -
23/02:30am 11.0 CALM 0 0 1018.8 - 0.0 - - - - - - -
23/02:00am 11.3 CALM 0 0 1019.2 - 0.0 - - - - - - -
23/01:30am 11.4 CALM 0 0 1019.4 - 0.0 - - - - - - -
23/01:00am 11.6 CALM 0 0 1019.7 - 0.0 - - - - - - -
23/12:30am 12.1 CALM 0 0 1020.0 - 0.0 - - - - - - -
23/12:00am 12.1 CALM 0 0 1020.3 - 0.0 - - - - - - -
 
Date/Time
EDT
Temp

°C
Wind Pressure Rain
since 9am
mm
Weather Cloud Vis
km
Sea
Height
m
Swell
Dir
 
Speed
knots
Gust
knots
hPa Trend Height
m
Period
s
Dir
22/11:30pm 12.4 CALM 0 0 1020.4 - 0.0 - - - - - - -
22/11:00pm 12.9 CALM 0 0 1020.6 - 0.0 - - - - - - -
22/10:30pm 13.1 CALM 0 0 1020.8 - 0.0 - - - - - - -
22/10:00pm 13.7 CALM 0 0 1020.9 - 0.0 - - - - - - -
22/09:30pm 14.0 CALM 0 0 1020.9 - 0.0 - - - - - - -
22/09:00pm 14.7 CALM 0 0 1020.9 - 0.0 - - - - - - -
22/08:30pm 15.1 CALM 0 0 1020.6 - 0.0 - - - - - - -
22/08:00pm 16.8 CALM 0 1 1020.5 - 0.0 - - - - - - -
22/07:30pm 18.0 E 1 2 1020.4 - 0.0 - - - - - - -
22/07:00pm 19.1 E 2 4 1020.4 - 0.0 - - - - - - -
22/06:30pm 20.1 E 3 6 1020.4 - 0.0 - - - - - - -
22/06:00pm 20.7 E 4 8 1020.6 - 0.0 - - - - - - -
22/05:30pm 20.9 E 5 8 1020.8 - 0.0 - - - - - - -
22/05:00pm 20.7 E 7 12 1021.0 - 0.0 - - - - - - -
22/04:30pm 20.9 ESE 9 15 1021.2 - 0.0 - - - - - - -
22/04:00pm 20.9 E 8 13 1021.8 - 0.0 - - - - - - -
22/03:30pm 21.4 ESE 8 13 1022.2 - 0.0 - - - - - - -

Other Formats:

Comma delimited format used in spreadsheet applications
http://www.bom.gov.au/fwo/IDN60701/IDN60701.95767.axf

JavaScript Object Notation format (JSON) in row-major order
http://www.bom.gov.au/fwo/IDN60701/IDN60701.95767.json